Aérodrome :
LOGIN :

S'inscrire | Disclaimer

   EN    FR    IT 

 










Légende :    VFR   VFR Marginal   IFR   IFR Intensif   IFR Très Intensif
Visi : 
Plafond : 
>= 8 km
>= 3000ft
5 à 8 km
1000 à 3000 ft
1500m à 5 km
500 à 1000 ft
800 à 1500m
200 à 500 ft
< 800m
< 200 ft
Symboles :   Orages  Brouillard  Fortes neiges  Fortes précipitations  Vent > 20 kt
SIGMETs :   Divers  Orages  Givrage  Turbulence  Onde Orograph.  Cendres Volcan.






- Altitude de l'aérodrome : 15 ft
- Code IATA : FCO


LIRF - Roma Leonardo da Vinci Fiumicino

DERNIER METAR :
  • 271250Z 19007KT 150V220 9999 FEW010 BKN025 27/22 Q1016 NOSIG

METARs EXPIRÉS :
  • 271220Z 18008KT 9999 BKN016 26/22 Q1016 NOSIG
  • 271150Z 18008KT 140V210 9999 SCT010 SCT020 26/22 Q1016 NOSIG
  • 271120Z 16007KT 120V200 9999 SCT010 26/22 Q1017 NOSIG
  • 271050Z 17005KT 140V200 9999 SCT014 24/21 Q1017 RETS NOSIG
  • 271020Z 15004KT 120V190 9999 -TSRA FEW014 FEW025CB 23/21 Q1017 NOSIG

TAF COR TAF LIRF
Valide du 27 à 12h jusqu'au 28 à 18h UTC


271135Z 2712/2818 20012KT 9999 SCT025
TEMPO 2712/2715 SHRA
BECMG 2718/2720 VRB04KT
TEMPO 2800/2806 3000 BR
BECMG 2810/2812 28012KT



MET'MAP, la Météo Aéronautique d'un coup d'oeil ! - Copyright ORBIFLY Décembre 2007 - Disclaimer

ORBIFLY MET'MAP TEAM :

Programmation & Développement : Alexandra Zaïnal
Sur une idée originale de : Baudouin d'Aumeries
Assistance à la programmation : Marc-Olivier Méhu
Soutien technique & logistique : Manuel Goepfert

Contact : metmap@orbifly.com




SOURCES & CREDITS :

   NOAA